Terminal Aerodrome Forecast
Issued by NWS Pocatello, ID

Home | Current Version | Previous Version | Text Only | Print | Product List | Glossary On
Versions: 1 2 3 4 5 6 7 8 9 10 11 12 13 14 15 16 17 18
000
FTUS45 KPIH 220520
TAFBYI
TAF
KBYI 220520Z 2206/2306 VRB06KT P6SM OVC100
     FM221400 12009KT P6SM BKN040 OVC070
     FM222200 23007KT 5SM -SN OVC020
     FM230200 24008KT 2SM -SN OVC015=

USA.gov is the U.S. government's official web portal to all federal, state and local government web resources and services.